createdAt,value
2023-01-13T00:01:32.072Z,85.43
2023-01-13T00:04:01.100Z,85.41
2023-01-13T00:06:29.425Z,85.51
2023-01-13T00:08:57.949Z,85.56
2023-01-13T00:11:26.531Z,85.72
2023-01-13T00:13:54.897Z,85.39
2023-01-13T00:16:23.182Z,85.36
2023-01-13T00:18:51.411Z,85.27
2023-01-13T00:21:23.223Z,85.63
2023-01-13T00:23:55.548Z,85.43
2023-01-13T00:26:27.586Z,85.48
2023-01-13T00:29:00.143Z,85.50
2023-01-13T00:31:30.228Z,85.69
2023-01-13T00:34:02.320Z,85.32
2023-01-13T00:36:31.155Z,85.52
2023-01-13T00:38:59.960Z,85.41
2023-01-13T00:41:28.145Z,85.27
2023-01-13T00:43:56.252Z,85.26
2023-01-13T00:46:24.389Z,85.13
2023-01-13T00:48:52.967Z,85.38
2023-01-13T00:51:22.001Z,85.36
2023-01-13T00:53:52.237Z,85.60
2023-01-13T00:56:40.771Z,85.30
2023-01-13T00:59:14.004Z,85.53
2023-01-13T01:04:33.852Z,85.53
2023-01-13T01:07:01.929Z,85.42
2023-01-13T01:09:33.516Z,85.47
2023-01-13T01:12:01.960Z,85.75
2023-01-13T01:14:30.085Z,85.34
2023-01-13T01:16:58.170Z,85.57
2023-01-13T01:19:26.280Z,85.32
2023-01-13T01:21:55.062Z,85.53
2023-01-13T01:24:23.239Z,85.45
2023-01-13T01:26:51.345Z,85.37
2023-01-13T01:29:19.525Z,85.41
2023-01-13T01:31:47.720Z,85.21
2023-01-13T01:34:15.889Z,85.29
2023-01-13T01:36:44.053Z,85.17
2023-01-13T01:39:12.195Z,85.11
2023-01-13T01:42:00.565Z,85.15
2023-01-13T01:44:52.485Z,85.22
2023-01-13T01:47:22.207Z,84.80
2023-01-13T01:49:50.915Z,84.87
2023-01-13T01:52:27.991Z,85.02
2023-01-13T01:55:10.649Z,84.91
2023-01-13T01:58:01.980Z,85.02
2023-01-13T02:00:32.263Z,84.90
2023-01-13T02:03:01.424Z,85.07
2023-01-13T02:05:29.618Z,84.62
2023-01-13T02:07:59.999Z,84.85
2023-01-13T02:10:30.209Z,84.45
2023-01-13T02:13:05.046Z,84.69
2023-01-13T02:15:51.133Z,84.80
2023-01-13T02:19:02.868Z,84.71
2023-01-13T02:22:08.200Z,84.56
2023-01-13T02:25:18.073Z,84.28
2023-01-13T02:28:11.269Z,84.56
2023-01-13T02:31:27.231Z,84.53
2023-01-13T02:34:15.013Z,84.74
2023-01-13T02:36:59.405Z,84.68
2023-01-13T02:39:39.930Z,84.43
2023-01-13T02:42:36.548Z,84.63
2023-01-13T02:45:13.869Z,84.72
2023-01-13T02:47:46.324Z,84.33
2023-01-13T02:50:27.960Z,84.20
2023-01-13T02:53:19.677Z,84.09
2023-01-13T02:55:53.434Z,84.31
2023-01-13T02:58:27.544Z,84.55
2023-01-13T03:00:56.025Z,84.50
2023-01-13T03:03:24.938Z,84.47
2023-01-13T03:06:10.489Z,84.23
2023-01-13T03:09:32.520Z,84.16
2023-01-13T03:12:22.826Z,84.46
2023-01-13T03:15:08.582Z,83.98
2023-01-13T03:18:07.565Z,84.07
2023-01-13T03:20:47.758Z,83.94
2023-01-13T03:23:31.949Z,84.32
2023-01-13T03:26:17.026Z,84.28
2023-01-13T03:28:54.276Z,84.26
2023-01-13T03:31:31.891Z,84.08
2023-01-13T03:34:16.124Z,84.05
2023-01-13T03:36:49.335Z,84.13
2023-01-13T03:39:22.706Z,84.16
2023-01-13T03:41:59.907Z,84.19
2023-01-13T03:44:38.212Z,84.43
2023-01-13T03:47:12.264Z,84.36
2023-01-13T03:49:57.316Z,84.35
2023-01-13T03:52:32.638Z,84.33
2023-01-13T03:55:12.003Z,84.23
2023-01-13T03:57:49.373Z,84.04
2023-01-13T04:00:19.901Z,84.13
2023-01-13T04:03:23.124Z,84.47
2023-01-13T04:06:03.658Z,84.35
2023-01-13T04:08:36.314Z,84.57
2023-01-13T04:11:14.632Z,84.39
2023-01-13T04:13:45.156Z,84.48
2023-01-13T04:16:13.713Z,84.57
2023-01-13T04:18:41.927Z,84.44
2023-01-13T04:21:10.155Z,84.38
2023-01-13T04:23:38.410Z,84.66
2023-01-13T04:26:06.549Z,84.67
2023-01-13T04:28:35.115Z,84.37
2023-01-13T04:31:03.290Z,84.42
2023-01-13T04:33:31.423Z,84.44
2023-01-13T04:35:59.567Z,84.17
2023-01-13T04:38:27.885Z,84.11
2023-01-13T04:40:56.007Z,83.97
2023-01-13T04:43:24.144Z,84.31
2023-01-13T04:45:52.334Z,84.22
2023-01-13T04:48:20.523Z,84.03
2023-01-13T04:50:48.648Z,84.35
2023-01-13T04:53:16.723Z,84.38
2023-01-13T04:55:44.979Z,84.38
2023-01-13T04:58:13.096Z,84.10
2023-01-13T05:00:41.507Z,84.11
2023-01-13T05:03:10.025Z,84.44
2023-01-13T05:05:38.245Z,84.36
2023-01-13T05:08:06.430Z,84.50
2023-01-13T05:10:34.736Z,84.50
2023-01-13T05:13:21.429Z,84.29
2023-01-13T05:16:24.871Z,84.38
2023-01-13T05:18:53.057Z,84.29
2023-01-13T05:21:40.880Z,84.69
2023-01-13T05:24:28.188Z,84.59
2023-01-13T05:26:56.355Z,84.55
2023-01-13T05:29:24.466Z,84.70
2023-01-13T05:31:52.587Z,84.63
2023-01-13T05:34:20.938Z,84.66
2023-01-13T05:36:49.198Z,84.73
2023-01-13T05:39:17.294Z,84.88
2023-01-13T05:42:04.194Z,84.41
2023-01-13T05:44:32.350Z,84.98
2023-01-13T05:47:00.435Z,84.77
2023-01-13T05:49:28.547Z,84.94
2023-01-13T05:51:56.767Z,84.91
2023-01-13T05:54:25.168Z,85.11
2023-01-13T05:56:53.288Z,85.14
2023-01-13T05:59:21.420Z,85.08
2023-01-13T06:01:50.667Z,85.11
2023-01-13T06:04:18.889Z,84.99
2023-01-13T06:06:47.392Z,84.90
2023-01-13T06:09:15.644Z,85.25
2023-01-13T06:11:44.121Z,85.42
2023-01-13T06:14:12.200Z,85.43
2023-01-13T06:16:40.462Z,85.34
2023-01-13T06:19:11.814Z,85.21
2023-01-13T06:21:40.692Z,85.47
2023-01-13T06:24:09.282Z,85.44
2023-01-13T06:26:41.572Z,85.45
2023-01-13T06:29:10.240Z,85.44
2023-01-13T06:31:39.658Z,85.60
2023-01-13T06:34:13.375Z,85.35
2023-01-13T06:36:48.899Z,85.61
2023-01-13T06:39:21.848Z,85.41
2023-01-13T06:42:12.994Z,85.33
2023-01-13T06:44:41.190Z,85.73
2023-01-13T06:47:09.496Z,85.64
2023-01-13T06:49:37.595Z,85.58
2023-01-13T06:52:05.994Z,85.28
2023-01-13T06:54:34.856Z,85.58
2023-01-13T06:57:03.163Z,85.58
2023-01-13T06:59:34.387Z,85.48
2023-01-13T07:02:03.067Z,85.25
2023-01-13T07:04:31.324Z,85.36
2023-01-13T07:07:00.096Z,85.51
2023-01-13T07:09:28.174Z,85.38
2023-01-13T07:11:56.297Z,85.64
2023-01-13T07:14:43.111Z,85.83
2023-01-13T07:17:11.306Z,85.48
2023-01-13T07:19:39.476Z,86.11
2023-01-13T07:22:07.677Z,85.82
2023-01-13T07:24:35.830Z,85.74
2023-01-13T07:27:04.118Z,85.88
2023-01-13T07:29:32.335Z,85.89
2023-01-13T07:32:01.522Z,85.76
2023-01-13T07:34:29.688Z,85.84
2023-01-13T07:36:57.803Z,85.72
2023-01-13T07:39:25.943Z,85.82
2023-01-13T07:42:12.945Z,85.69
2023-01-13T07:44:41.101Z,85.91
2023-01-13T07:47:11.287Z,85.99
2023-01-13T07:49:39.482Z,86.04
2023-01-13T07:52:07.653Z,86.01
2023-01-13T07:54:40.955Z,86.05
2023-01-13T07:57:09.490Z,86.15
2023-01-13T07:59:37.639Z,86.05
2023-01-13T08:02:06.321Z,85.83
2023-01-13T08:04:34.687Z,85.56
2023-01-13T08:07:04.583Z,85.94
2023-01-13T08:09:32.907Z,85.59
2023-01-13T08:12:19.868Z,85.75
2023-01-13T08:14:48.018Z,85.61
2023-01-13T08:17:16.121Z,85.56
2023-01-13T08:19:44.225Z,85.32
2023-01-13T08:22:12.336Z,85.38
2023-01-13T08:24:40.450Z,85.60
2023-01-13T08:27:08.622Z,85.36
2023-01-13T08:29:36.718Z,85.35
2023-01-13T08:32:05.141Z,84.72
2023-01-13T08:34:33.284Z,85.04
2023-01-13T08:37:01.464Z,85.31
2023-01-13T08:39:29.635Z,85.30
2023-01-13T08:41:58.786Z,85.38
2023-01-13T08:44:29.757Z,85.15
2023-01-13T08:46:58.443Z,85.17
2023-01-13T08:49:26.855Z,85.10
2023-01-13T08:51:55.037Z,85.28
2023-01-13T08:54:23.213Z,85.14
2023-01-13T08:56:51.528Z,85.02
2023-01-13T08:59:20.753Z,84.95
2023-01-13T09:01:49.641Z,84.98
2023-01-13T09:04:22.861Z,84.86
2023-01-13T09:06:51.251Z,84.83
2023-01-13T09:09:19.611Z,84.85
2023-01-13T09:12:09.829Z,84.78
2023-01-13T09:14:39.962Z,84.58
2023-01-13T09:17:08.143Z,84.43
2023-01-13T09:19:36.891Z,84.59
2023-01-13T09:22:05.038Z,84.45
2023-01-13T09:24:33.247Z,84.18
2023-01-13T09:27:01.433Z,84.13
2023-01-13T09:29:29.752Z,83.98
2023-01-13T09:32:01.202Z,83.60
2023-01-13T09:34:47.844Z,83.68
2023-01-13T09:37:16.194Z,83.47
2023-01-13T09:39:44.493Z,83.33
2023-01-13T09:42:45.967Z,83.05
2023-01-13T09:45:25.329Z,82.70
2023-01-13T09:48:01.053Z,82.73
2023-01-13T09:50:51.007Z,81.81
2023-01-13T09:53:29.236Z,81.80
2023-01-13T09:55:57.419Z,81.48
2023-01-13T09:58:26.012Z,81.49
2023-01-13T10:01:16.534Z,81.45
2023-01-13T10:03:45.444Z,80.34
2023-01-13T10:06:38.829Z,80.54
2023-01-13T10:09:15.933Z,80.77
2023-01-13T10:12:05.954Z,80.20
2023-01-13T10:14:50.699Z,80.10
2023-01-13T10:17:43.165Z,80.03
2023-01-13T10:20:41.827Z,79.78
2023-01-13T10:23:47.252Z,79.94
2023-01-13T10:26:58.537Z,79.36
2023-01-13T10:29:30.263Z,78.85
2023-01-13T10:32:00.207Z,79.10
2023-01-13T10:34:29.514Z,79.13
2023-01-13T10:37:09.564Z,78.87
2023-01-13T10:39:47.291Z,79.11
2023-01-13T10:42:22.945Z,79.28
2023-01-13T10:44:57.063Z,79.28
2023-01-13T10:47:34.482Z,78.90
2023-01-13T10:50:11.656Z,78.78
2023-01-13T10:52:55.560Z,78.75
2023-01-13T10:55:33.228Z,78.80
2023-01-13T10:58:20.571Z,78.94
2023-01-13T11:00:58.457Z,78.66
2023-01-13T11:03:34.424Z,78.75
2023-01-13T11:06:02.677Z,78.65
2023-01-13T11:08:45.517Z,78.72
2023-01-13T11:11:35.109Z,78.59
2023-01-13T11:14:27.842Z,78.45
2023-01-13T11:16:59.092Z,78.14
2023-01-13T11:19:30.894Z,78.41
2023-01-13T11:22:23.517Z,78.25
2023-01-13T11:25:09.919Z,78.22
2023-01-13T11:28:17.217Z,78.29
2023-01-13T11:31:47.142Z,78.13
2023-01-13T11:34:45.293Z,77.91
2023-01-13T11:37:26.356Z,77.98
2023-01-13T11:40:21.582Z,78.05
2023-01-13T11:43:18.956Z,77.49
2023-01-13T11:45:58.379Z,77.42
2023-01-13T11:48:35.191Z,77.21
2023-01-13T11:51:46.890Z,77.00
2023-01-13T11:54:14.972Z,76.95
2023-01-13T11:57:07.657Z,76.97
2023-01-13T11:59:57.152Z,76.32
2023-01-13T12:02:37.344Z,76.58
2023-01-13T12:05:29.665Z,76.61
2023-01-13T12:08:42.783Z,76.43
2023-01-13T12:12:08.180Z,76.15
2023-01-13T12:14:57.487Z,75.71
2023-01-13T12:17:38.538Z,75.82
2023-01-13T12:20:39.178Z,75.15
2023-01-13T12:23:34.280Z,75.10
2023-01-13T12:26:18.782Z,74.24
2023-01-13T12:29:01.579Z,73.80
2023-01-13T12:31:31.865Z,74.15
2023-01-13T12:34:30.784Z,74.31
2023-01-13T12:37:54.824Z,73.92
2023-01-13T12:40:34.262Z,74.39
2023-01-13T12:43:43.679Z,74.68
2023-01-13T12:46:24.550Z,73.75
2023-01-13T12:48:56.884Z,73.72
2023-01-13T12:51:37.787Z,73.61
2023-01-13T12:54:37.793Z,73.71
2023-01-13T12:57:25.173Z,72.93
2023-01-13T13:00:05.170Z,72.83
2023-01-13T13:02:39.144Z,72.98
2023-01-13T13:05:22.758Z,72.88
2023-01-13T13:08:10.781Z,73.20
2023-01-13T13:10:46.803Z,72.76
2023-01-13T13:13:49.115Z,72.95
2023-01-13T13:16:26.452Z,73.06
2023-01-13T13:19:22.560Z,73.43
2023-01-13T13:22:09.902Z,73.28
2023-01-13T13:24:40.284Z,73.35
2023-01-13T13:27:50.107Z,73.25
2023-01-13T13:30:30.273Z,73.36
2023-01-13T13:33:20.422Z,73.55
2023-01-13T13:36:25.474Z,73.51
2023-01-13T13:39:34.433Z,73.23
2023-01-13T13:42:46.585Z,73.55
2023-01-13T13:45:40.288Z,73.82
2023-01-13T13:48:34.392Z,73.77
2023-01-13T13:51:25.160Z,73.87
2023-01-13T13:53:54.773Z,73.93
2023-01-13T13:56:27.394Z,73.97
2023-01-13T13:58:55.714Z,74.11
2023-01-13T14:01:38.540Z,73.93
2023-01-13T14:04:37.175Z,74.13
2023-01-13T14:07:22.006Z,74.31
2023-01-13T14:09:54.450Z,74.52
2023-01-13T14:12:26.400Z,74.46
2023-01-13T14:14:57.614Z,74.59
2023-01-13T14:17:29.343Z,74.57
2023-01-13T14:20:10.545Z,74.81
2023-01-13T14:22:38.689Z,74.71
2023-01-13T14:25:45.820Z,74.92
2023-01-13T14:28:13.925Z,75.13
2023-01-13T14:30:43.184Z,75.11
2023-01-13T14:33:26.939Z,75.19
2023-01-13T14:36:20.065Z,75.32
2023-01-13T14:39:03.262Z,75.67
2023-01-13T14:41:48.327Z,75.51
2023-01-13T14:44:36.450Z,75.51
2023-01-13T14:47:20.176Z,75.53
2023-01-13T14:50:02.498Z,75.69
2023-01-13T14:52:34.678Z,75.84
2023-01-13T14:55:10.100Z,75.91
2023-01-13T14:57:44.064Z,76.08
2023-01-13T15:00:15.210Z,76.18
2023-01-13T15:02:58.415Z,76.31
2023-01-13T15:05:26.512Z,76.23
2023-01-13T15:08:09.137Z,76.53
2023-01-13T15:11:05.937Z,76.62
2023-01-13T15:14:01.504Z,76.67
2023-01-13T15:16:33.372Z,76.87
2023-01-13T15:19:03.476Z,77.09
2023-01-13T15:21:31.647Z,77.24
2023-01-13T15:23:59.977Z,77.40
2023-01-13T15:26:30.833Z,77.38
2023-01-13T15:29:00.807Z,77.86
2023-01-13T15:31:29.211Z,77.82
2023-01-13T15:33:58.825Z,77.89
2023-01-13T15:36:31.143Z,78.18
2023-01-13T15:39:01.337Z,78.14
2023-01-13T15:41:48.017Z,78.45
2023-01-13T15:44:34.963Z,78.24
2023-01-13T15:47:07.686Z,78.48
2023-01-13T15:49:40.216Z,78.40
2023-01-13T15:52:24.589Z,78.48
2023-01-13T15:54:54.107Z,78.81
2023-01-13T15:57:25.586Z,78.76
2023-01-13T16:00:00.873Z,78.81
2023-01-13T16:02:31.001Z,79.18
2023-01-13T16:04:59.428Z,79.17
2023-01-13T16:07:27.711Z,79.25
2023-01-13T16:09:55.950Z,79.45
2023-01-13T16:12:24.117Z,79.57
2023-01-13T16:14:52.235Z,79.42
2023-01-13T16:17:24.935Z,79.91
2023-01-13T16:19:53.089Z,79.77
2023-01-13T16:22:21.829Z,79.95
2023-01-13T16:24:50.063Z,80.15
2023-01-13T16:27:25.215Z,80.18
2023-01-13T16:29:53.431Z,80.31
2023-01-13T16:32:21.732Z,80.38
2023-01-13T16:34:50.168Z,80.56
2023-01-13T16:37:24.985Z,80.70
2023-01-13T16:39:54.679Z,80.54
2023-01-13T16:42:23.223Z,80.68
2023-01-13T16:44:53.025Z,80.45
2023-01-13T16:47:22.888Z,80.78
2023-01-13T16:49:51.633Z,80.96
2023-01-13T16:52:19.773Z,80.74
2023-01-13T16:54:47.905Z,80.96
2023-01-13T16:57:15.980Z,81.20
2023-01-13T16:59:44.130Z,81.12
2023-01-13T17:02:16.345Z,80.90
2023-01-13T17:04:45.062Z,81.53
2023-01-13T17:07:16.944Z,81.49
2023-01-13T17:09:45.067Z,81.45
2023-01-13T17:12:13.157Z,81.54
2023-01-13T17:14:43.429Z,81.74
2023-01-13T17:17:29.829Z,81.55
2023-01-13T17:19:57.990Z,81.56
2023-01-13T17:22:26.144Z,82.07
2023-01-13T17:24:54.295Z,82.01
2023-01-13T17:27:23.253Z,82.15
2023-01-13T17:29:51.581Z,82.25
2023-01-13T17:32:21.404Z,82.32
2023-01-13T17:34:50.280Z,82.19
2023-01-13T17:37:18.556Z,82.51
2023-01-13T17:39:48.716Z,82.16
2023-01-13T17:42:17.295Z,82.50
2023-01-13T17:44:46.982Z,82.30
2023-01-13T17:47:15.209Z,82.35
2023-01-13T17:49:43.341Z,82.64
2023-01-13T17:52:11.483Z,82.33
2023-01-13T17:54:40.078Z,82.22
2023-01-13T17:57:08.890Z,82.09
2023-01-13T17:59:36.979Z,82.19
2023-01-13T18:02:05.324Z,82.30
2023-01-13T18:04:33.893Z,82.26
2023-01-13T18:07:02.016Z,82.17
2023-01-13T18:09:30.172Z,82.07
2023-01-13T18:11:58.923Z,82.31
2023-01-13T18:14:28.179Z,82.18
2023-01-13T18:16:56.326Z,82.03
2023-01-13T18:19:43.146Z,82.22
2023-01-13T18:22:32.961Z,82.35
2023-01-13T18:25:21.787Z,82.26
2023-01-13T18:27:50.094Z,82.24
2023-01-13T18:30:18.338Z,82.31
2023-01-13T18:32:46.480Z,81.98
2023-01-13T18:35:14.589Z,81.98
2023-01-13T18:37:43.098Z,81.91
2023-01-13T18:40:13.726Z,81.92
2023-01-13T18:42:54.987Z,82.09
2023-01-13T18:45:27.492Z,82.27
2023-01-13T18:47:58.713Z,82.21
2023-01-13T18:50:28.286Z,82.04
2023-01-13T18:52:57.012Z,81.81
2023-01-13T18:55:27.129Z,82.15
2023-01-13T18:57:56.285Z,82.24
2023-01-13T19:00:26.929Z,81.99
2023-01-13T19:05:35.919Z,82.20
2023-01-13T19:08:05.489Z,82.01
2023-01-13T19:10:33.759Z,81.89
2023-01-13T19:13:01.973Z,82.26
2023-01-13T19:15:30.673Z,82.21
2023-01-13T19:18:00.335Z,81.89
2023-01-13T19:20:28.679Z,82.08
2023-01-13T19:22:56.761Z,81.72
2023-01-13T19:25:24.939Z,81.75
2023-01-13T19:27:53.070Z,81.92
2023-01-13T19:30:21.340Z,82.02
2023-01-13T19:32:49.446Z,82.09
2023-01-13T19:35:18.137Z,81.93
2023-01-13T19:37:46.323Z,81.78
2023-01-13T19:40:14.785Z,81.67
2023-01-13T19:43:02.911Z,81.71
2023-01-13T19:45:33.753Z,81.60
2023-01-13T19:48:04.651Z,81.55
2023-01-13T19:50:40.036Z,81.74
2023-01-13T19:53:15.639Z,81.82
2023-01-13T19:55:48.658Z,81.73
2023-01-13T19:58:20.711Z,81.62
2023-01-13T20:00:49.121Z,81.78
2023-01-13T20:03:23.709Z,81.72
2023-01-13T20:05:53.844Z,81.92
2023-01-13T20:08:22.964Z,81.81
2023-01-13T20:11:11.124Z,81.89
2023-01-13T20:13:39.252Z,81.73
2023-01-13T20:16:08.093Z,81.72
2023-01-13T20:18:37.207Z,81.97
2023-01-13T20:21:07.675Z,81.93
2023-01-13T20:23:36.365Z,81.92
2023-01-13T20:26:07.631Z,81.89
2023-01-13T20:28:38.895Z,81.88
2023-01-13T20:31:12.154Z,81.84
2023-01-13T20:33:40.274Z,82.01
2023-01-13T20:36:16.157Z,81.86
2023-01-13T20:38:44.268Z,81.84
2023-01-13T20:41:30.948Z,81.99
2023-01-13T20:43:59.083Z,81.91
2023-01-13T20:46:27.702Z,81.77
2023-01-13T20:48:55.904Z,81.88
2023-01-13T20:51:24.002Z,82.01
2023-01-13T20:53:52.120Z,81.76
2023-01-13T20:56:20.236Z,81.81
2023-01-13T20:58:48.364Z,81.86
2023-01-13T21:01:16.612Z,81.70
2023-01-13T21:03:45.027Z,81.82
2023-01-13T21:06:16.245Z,81.68
2023-01-13T21:08:46.504Z,81.73
2023-01-13T21:11:37.344Z,81.80
2023-01-13T21:14:24.444Z,81.65
2023-01-13T21:16:52.553Z,81.81
2023-01-13T21:19:20.687Z,81.78
2023-01-13T21:21:48.830Z,81.52
2023-01-13T21:24:16.955Z,81.71
2023-01-13T21:26:45.120Z,81.76
2023-01-13T21:29:13.272Z,81.57
2023-01-13T21:31:41.509Z,81.87
2023-01-13T21:34:10.362Z,81.89
2023-01-13T21:36:38.557Z,81.80
2023-01-13T21:39:06.709Z,81.89
2023-01-13T21:41:53.302Z,81.56
2023-01-13T21:44:40.322Z,81.45
2023-01-13T21:47:35.869Z,81.58
2023-01-13T21:50:08.040Z,81.75
2023-01-13T21:52:37.416Z,81.79
2023-01-13T21:55:20.396Z,81.65
2023-01-13T21:57:54.218Z,81.51
2023-01-13T22:00:25.324Z,81.37
2023-01-13T22:02:54.202Z,81.40
2023-01-13T22:05:24.914Z,81.45
2023-01-13T22:07:53.181Z,81.52
2023-01-13T22:10:25.177Z,81.48
2023-01-13T22:13:00.455Z,81.63
2023-01-13T22:15:30.391Z,81.65
2023-01-13T22:17:59.796Z,81.54
2023-01-13T22:20:28.419Z,81.55
2023-01-13T22:22:58.153Z,81.64
2023-01-13T22:25:26.329Z,81.56
2023-01-13T22:28:03.473Z,81.47
2023-01-13T22:30:32.643Z,81.62
2023-01-13T22:33:00.886Z,81.63
2023-01-13T22:35:29.029Z,81.81
2023-01-13T22:37:58.230Z,81.72
2023-01-13T22:40:26.500Z,81.84
2023-01-13T22:42:54.635Z,81.64
2023-01-13T22:45:22.754Z,81.50
2023-01-13T22:47:51.029Z,81.84
2023-01-13T22:50:20.979Z,81.69
2023-01-13T22:52:49.104Z,81.75
2023-01-13T22:55:17.189Z,81.83
2023-01-13T22:57:48.159Z,81.82
2023-01-13T23:00:19.138Z,81.70
2023-01-13T23:02:47.566Z,81.72
2023-01-13T23:05:15.839Z,81.82
2023-01-13T23:07:43.920Z,81.66
2023-01-13T23:10:12.159Z,81.72
2023-01-13T23:12:40.312Z,81.78
2023-01-13T23:15:09.092Z,81.67
2023-01-13T23:17:37.291Z,81.97
2023-01-13T23:20:05.823Z,81.88
2023-01-13T23:22:38.562Z,81.80
2023-01-13T23:25:08.407Z,82.14
2023-01-13T23:27:37.386Z,81.99
2023-01-13T23:30:08.871Z,81.89
2023-01-13T23:32:36.994Z,82.15
2023-01-13T23:35:05.599Z,82.16
2023-01-13T23:37:34.381Z,82.10
2023-01-13T23:40:02.854Z,81.99
2023-01-13T23:42:31.054Z,81.93
2023-01-13T23:44:59.237Z,82.24
2023-01-13T23:47:28.659Z,82.00
2023-01-13T23:49:56.788Z,82.08
2023-01-13T23:52:24.986Z,82.15
2023-01-13T23:54:53.112Z,81.96
2023-01-13T23:57:21.233Z,82.11
2023-01-13T23:59:49.417Z,81.97
